• Join FlightAware (Why Join?)
  • Login
  • US Flag 
01:00AM EDT


 

Airport Tracker/Info


-or-


 

Live Flight TrackerFlight Track Log ✈ AWE1940 ✈ 30-Jun-2013 ✈ KIAH - KCLT

Flight Track Log - Related Links

Times and Time Zones

All times are in EDT time to prevent confusion due to time zone crossing. See the AWE1940 flight status page for this flight to view local times or setup timezone preferences in your user account.

Time Position Orientation Groundspeed Altitude Reporting Facility
EDT Latitude Longitude Course Direction KTS MPH feet Rate Location/Type
07:21PM 29.9889 -95.3644 90° East 166 191 900  Level Houston Center
07:22PM 29.9508 -95.4075 224° Southwest 251 289 3,100 1,440 Climbing Houston Center
07:23PM 29.9117 -95.3472 127° Southeast 267 307 4,100 600 Climbing Houston Center
07:24PM 29.8969 -95.3133 117° Southeast 263 303 4,000  Descending Houston Center
07:24PM 29.8722 -95.2603 118° Southeast 269 310 4,100 1,320 Climbing Houston Center
07:25PM 29.8528 -95.1856 107° East 267 307 6,100 2,040 Climbing Houston Center
07:26PM 29.9833 -94.6534 90° East  Level FlightAware Approximate
07:26PM 29.8583 -95.1525 79° East 267 307 7,100  Level Houston Center
07:26PM 29.8689 -95.0897 79° East 295 339 8,900 2,580 Climbing Houston Center
07:27PM 29.9833 -94.5171 90° East  Level FlightAware Approximate
07:28PM 29.8883 -94.9686 79° East 293 337 12,400  Level Houston Center
07:29PM 29.9044 -94.8664 80° East 318 366 14,600 2,040 Climbing Houston Center
07:30PM 29.9272 -94.7342 79° East 349 402 16,700 2,040 Climbing Houston Center
07:31PM 29.9442 -94.6178 80° East 366 421 18,800 1,860 Climbing Houston Center
07:32PM 29.9653 -94.4978 78° East 379 436 20,600 1,800 Climbing Houston Center
07:33PM 29.9861 -94.3678 79° East 392 451 22,600 1,800 Climbing Houston Center
07:34PM 30.0044 -94.2433 80° East 394 453 24,400 1,380 Climbing Houston Center
07:35PM 30.0206 -94.1133 82° East 408 470 25,500 1,020 Climbing Houston Center
07:36PM 30.0372 -93.9778 82° East 426 490 26,600 1,260 Climbing Houston Center
07:37PM 30.0531 -93.8400 82° East 435 501 28,100 1,260 Climbing Houston Center
07:38PM 30.0708 -93.7011 82° East 442 509 29,200 1,320 Climbing Houston Center
07:39PM 30.0903 -93.5344 82° East 444 511 30,900 1,320 Climbing Houston Center
07:40PM 30.1053 -93.3972 83° East 438 504 32,000 840 Climbing Houston Center
07:41PM 30.1222 -93.2575 82° East 444 511 32,700 480 Climbing Houston Center
07:42PM 30.1386 -93.1153 82° East 450 518 33,000 120 Climbing Houston Center
07:43PM 30.1661 -92.9744 77° East 451 519 33,000  Level Houston Center
07:44PM 30.2000 -92.8056 77° East 453 521 33,000  Level Houston Center
07:45PM 30.2294 -92.6631 77° East 456 525 33,000  Level Houston Center
07:46PM 30.2561 -92.5206 78° East 456 525 33,000 -60 Level Houston Center
07:47PM 30.2833 -92.3794 77° East 453 521 32,900  Descending Houston Center
07:48PM 30.3111 -92.2225 78° East 451 519 33,000  Climbing Houston Center
07:49PM 30.3386 -92.0819 77° East 452 520 33,000  Level Houston Center
07:50PM 30.3650 -91.9411 78° East 451 519 33,000  Level Houston Center
07:51PM 30.3922 -91.7994 77° East 452 520 33,000  Level Houston Center
07:52PM 30.4194 -91.6497 78° East 452 520 33,000  Level Houston Center
07:53PM 30.4469 -91.5075 77° East 453 521 33,000  Level Houston Center
07:55PM 30.4739 -91.3650 78° East 453 521 33,000  Level Houston Center
07:56PM 30.5022 -91.2253 77° East 448 516 33,000  Level Houston Center
07:57PM 30.5383 -91.0594 76° East 444 511 33,000  Level Houston Center
07:58PM 30.5719 -90.9208 74° East 446 513 33,000  Level Houston Center
07:59PM 30.6008 -90.7811 76° East 444 511 33,000  Level Houston Center
08:00PM 30.6336 -90.6411 75° East 449 517 33,000  Level Houston Center
08:01PM 30.6656 -90.5000 75° East 452 520 33,000  Level Houston Center
08:02PM 30.6981 -90.3592 75° East 450 518 33,000  Level Houston Center
08:03PM 30.7292 -90.2175 76° East 451 519 33,000  Level Houston Center
08:04PM 30.7606 -90.0764 75° East 450 518 33,000  Level Houston Center
08:05PM 30.7908 -89.9358 76° East 447 514 33,000  Level Houston Center
08:06PM 30.8275 -89.7647 76° East 450 518 33,000  Level Houston Center
08:07PM 30.8592 -89.6217 76° East 454 522 33,000  Level Houston Center
08:08PM 30.8911 -89.4797 75° East 452 520 33,000  Level Houston Center
08:09PM 30.9203 -89.3350 77° East 458 527 33,000  Level Houston Center
08:10PM 30.9489 -89.1897 77° East 459 528 33,000  Level Houston Center
08:11PM 30.9797 -89.0472 76° East 455 524 33,000  Level Houston Center
08:12PM 31.0133 -88.8867 76° East 455 524 33,000  Level Houston Center
08:13PM 31.0425 -88.7447 76° East 452 520 33,000 -120 Level Houston Center
08:14PM 31.0750 -88.5900 76° East 454 522 32,800 -1,020 Descending Houston Center
08:15PM 31.1167 -88.4492 71° East 455 524 31,000 -1,800 Descending Houston Center
08:16PM 31.1853 -88.3258 57° Northeast 454 522 29,100 -1,020 Descending Houston Center
08:17PM 31.2519 -88.1989 58° Northeast 471 542 29,000 -60 Descending Houston Center
08:18PM 31.3197 -88.0694 58° Northeast 465 535 29,000  Level Houston Center
08:19PM 31.3861 -87.9400 59° Northeast 465 535 29,000  Level Houston Center
08:20PM 31.4678 -87.7833 59° Northeast 470 541 29,000  Level Houston Center
08:21PM 31.5372 -87.6525 58° Northeast 473 544 29,000  Level Houston Center
08:22PM 31.6047 -87.5211 59° Northeast 472 543 29,000  Level Houston Center
08:23PM 31.6517 -87.4419 55° Northeast 466 536 29,000  Level Atlanta Center
08:24PM 31.7225 -87.2981 60° Northeast 466 536 29,000  Level Atlanta Center
08:25PM 31.7883 -87.1686 59° Northeast 461 531 29,000  Level Atlanta Center
08:26PM 31.8564 -87.0342 59° Northeast 461 531 29,000  Level Atlanta Center
08:27PM 31.9264 -86.9019 58° Northeast 466 536 29,000  Level Atlanta Center
08:28PM 31.9942 -86.7692 59° Northeast 466 536 29,000  Level Atlanta Center
08:29PM 32.0614 -86.6464 57° Northeast 476 548 29,000  Level Atlanta Center
08:30PM 32.1311 -86.5111 59° Northeast 481 554 29,000  Level Atlanta Center
08:31PM 32.2028 -86.3633 60° Northeast 476 548 29,000  Level Atlanta Center
08:32PM 32.2886 -86.2378 51° Northeast 481 554 29,000  Level Atlanta Center
08:33PM 32.3908 -86.1222 44° Northeast 494 568 29,000  Level Atlanta Center
08:34PM 32.4886 -86.0089 44° Northeast 487 560 29,000  Level Atlanta Center
08:35PM 32.5758 -85.8975 47° Northeast 502 578 29,000  Level Atlanta Center
08:36PM 32.6675 -85.7733 49° Northeast 502 578 29,000  Level Atlanta Center
08:37PM 32.7567 -85.6492 49° Northeast 497 572 29,000  Level Atlanta Center
08:38PM 32.8481 -85.5247 49° Northeast 497 572 29,000  Level Atlanta Center
08:39PM 32.9394 -85.3978 49° Northeast 497 572 29,000  Level Atlanta Center
08:40PM 33.0283 -85.2753 49° Northeast 497 572 29,000  Level Atlanta Center
08:41PM 33.1169 -85.1575 48° Northeast 483 556 29,000  Level Atlanta Center
08:42PM 33.2036 -85.0319 50° Northeast 483 556 29,000  Level Atlanta Center
08:43PM 33.2944 -84.9086 49° Northeast 488 562 29,000  Level Atlanta Center
08:44PM 33.3828 -84.7853 49° Northeast 488 562 29,000  Level Atlanta Center
08:45PM 33.4650 -84.6364 56° Northeast 488 562 29,000 -420 Level Atlanta Center
08:46PM 33.5139 -84.4847 69° East 478 550 28,200 -900 Descending Atlanta Center
08:47PM 33.5600 -84.3331 70° East 478 550 27,300 -600 Descending Atlanta Center
08:48PM 33.6083 -84.1833 69° East 478 550 27,000 -180 Descending Atlanta Center
08:49PM 33.6586 -84.0389 67° East 478 550 27,000  Level Atlanta Center
08:50PM 33.7044 -83.8939 69° East 467 537 27,000  Level Atlanta Center
08:51PM 33.7522 -83.7489 68° East 467 537 27,000  Level Atlanta Center
08:52PM 33.7978 -83.6039 69° East 462 532 27,000  Level Atlanta Center
08:53PM 33.8450 -83.4611 68° East 462 532 27,000 -180 Level Atlanta Center
08:54PM 33.8903 -83.3206 69° East 449 517 26,700 -600 Descending Atlanta Center
08:55PM 33.9333 -83.1850 69° East 436 502 25,900 -900 Descending Atlanta Center
08:56PM 33.9781 -83.0467 69° East 436 502 25,000 -480 Descending Atlanta Center
08:57PM 34.0186 -82.9108 70° East 431 496 25,000 -540 Level Atlanta Center
08:58PM 34.0611 -82.7775 69° East 431 496 24,000 -540 Descending Atlanta Center
08:59PM 34.1014 -82.6414 70° East 426 490 24,000  Level Atlanta Center
09:00PM 34.1458 -82.5128 67° East 426 490 24,000  Level Atlanta Center
09:01PM 34.1858 -82.3764 70° East 426 490 24,000 -180 Level Atlanta Center
09:02PM 34.2278 -82.2400 70° East 426 490 23,700 -900 Descending Atlanta Center
09:03PM 34.2842 -82.1156 61° Northeast 426 490 22,300 -1,800 Descending Atlanta Center
09:04PM 34.3661 -82.0106 47° Northeast 426 490 20,100 -1,800 Descending Atlanta Center
09:05PM 34.4436 -81.9078 48° Northeast 414 476 18,700 -1,740 Descending Atlanta Center
09:06PM 34.5192 -81.8153 45° Northeast 402 463 16,700 -1,920 Descending Atlanta Center
09:07PM 34.5906 -81.7250 46° Northeast 376 433 14,900 -1,860 Descending Atlanta Center
09:08PM 34.6497 -81.6500 46° Northeast 361 415 13,300 -1,620 Descending Atlanta Center
09:09PM 34.7189 -81.5647 45° Northeast 349 402 11,900 -660 Descending Atlanta Center
09:10PM 34.7881 -81.4742 47° Northeast 332 382 12,000 -240 Climbing Atlanta Center
09:11PM 34.8489 -81.3939 47° Northeast 324 373 11,400 -1,140 Descending Atlanta Center
09:12PM 34.9097 -81.3186 45° Northeast 319 367 9,800 -1,320 Descending Atlanta Center
09:13PM 34.9586 -81.2536 47° Northeast 303 349 9,000 -480 Descending Atlanta Center
09:14PM 35.0253 -81.1675 47° Northeast 301 346 8,900  Descending Atlanta Center
09:15PM 35.0761 -81.1050 45° Northeast 302 348 9,000  Climbing Atlanta Center
09:16PM 35.1461 -81.0644 25° Northeast 297 342 9,000 -600 Level Atlanta Center
09:17PM 35.2331 -81.0433 11° North 305 351 7,900 -1,020 Descending Atlanta Center
09:18PM 35.2900 -80.9828 41° Northeast 294 338 7,000 -1,440 Descending Atlanta Center
09:19PM 35.3506 -80.8942 50° Northeast 291 335 4,900 -1,440 Descending Atlanta Center
09:20PM 35.3483 -80.8178 92° East 216 249 4,000 -900 Descending Atlanta Center